sensor_id;sensor_type;location;lat;lon;timestamp;pressure;altitude;pressure_sealevel;temperature;humidity
75940;BME280;75809;44.872;20.642;2024-02-23T00:01:18;99854.50;;;9.71;55.53
75940;BME280;75809;44.872;20.642;2024-02-23T00:03:43;99856.28;;;9.70;55.60
75940;BME280;75809;44.872;20.642;2024-02-23T00:06:09;99844.03;;;9.69;55.58
75940;BME280;75809;44.872;20.642;2024-02-23T00:08:34;99839.22;;;9.76;55.62
75940;BME280;75809;44.872;20.642;2024-02-23T00:11:00;99853.75;;;9.69;55.38
75940;BME280;75809;44.872;20.642;2024-02-23T00:13:25;99844.94;;;9.82;55.09
75940;BME280;75809;44.872;20.642;2024-02-23T00:15:51;99846.66;;;9.83;55.03
75940;BME280;75809;44.872;20.642;2024-02-23T00:18:17;99847.59;;;9.82;54.55
75940;BME280;75809;44.872;20.642;2024-02-23T00:20:42;99844.00;;;9.83;55.04
75940;BME280;75809;44.872;20.642;2024-02-23T00:23:08;99844.94;;;9.82;54.88
75940;BME280;75809;44.872;20.642;2024-02-23T00:25:33;99843.06;;;9.84;54.93
75940;BME280;75809;44.872;20.642;2024-02-23T00:27:59;99839.38;;;9.87;54.50
75940;BME280;75809;44.872;20.642;2024-02-23T00:30:24;99835.50;;;9.93;54.25
75940;BME280;75809;44.872;20.642;2024-02-23T00:32:50;99830.22;;;9.93;53.62
75940;BME280;75809;44.872;20.642;2024-02-23T00:35:15;99818.00;;;9.92;53.07
75940;BME280;75809;44.872;20.642;2024-02-23T00:37:41;99826.75;;;9.92;53.95
75940;BME280;75809;44.872;20.642;2024-02-23T00:40:06;99825.31;;;10.01;52.83
75940;BME280;75809;44.872;20.642;2024-02-23T00:42:32;99834.72;;;10.05;53.54
75940;BME280;75809;44.872;20.642;2024-02-23T00:44:58;99829.28;;;9.94;53.32
75940;BME280;75809;44.872;20.642;2024-02-23T00:47:23;99823.09;;;9.80;54.21
75940;BME280;75809;44.872;20.642;2024-02-23T00:49:49;99825.91;;;9.92;53.91
75940;BME280;75809;44.872;20.642;2024-02-23T00:52:15;99832.88;;;9.93;53.73
75940;BME280;75809;44.872;20.642;2024-02-23T00:54:41;99834.09;;;9.87;54.09
75940;BME280;75809;44.872;20.642;2024-02-23T00:57:07;99832.44;;;9.99;53.38
75940;BME280;75809;44.872;20.642;2024-02-23T00:59:32;99827.59;;;9.93;53.94
75940;BME280;75809;44.872;20.642;2024-02-23T01:01:58;99828.63;;;9.90;53.46
75940;BME280;75809;44.872;20.642;2024-02-23T01:04:23;99830.81;;;9.83;54.61
75940;BME280;75809;44.872;20.642;2024-02-23T01:06:49;99833.00;;;9.77;54.44
75940;BME280;75809;44.872;20.642;2024-02-23T01:09:14;99817.84;;;9.80;53.92
75940;BME280;75809;44.872;20.642;2024-02-23T01:11:42;99817.16;;;9.77;54.03
75940;BME280;75809;44.872;20.642;2024-02-23T01:14:07;99821.78;;;9.73;54.49
75940;BME280;75809;44.872;20.642;2024-02-23T01:16:33;99818.41;;;9.71;54.33
75940;BME280;75809;44.872;20.642;2024-02-23T01:18:58;99825.84;;;9.79;54.84
75940;BME280;75809;44.872;20.642;2024-02-23T01:21:24;99822.53;;;9.75;54.33
75940;BME280;75809;44.872;20.642;2024-02-23T01:23:51;99822.16;;;9.81;54.64
75940;BME280;75809;44.872;20.642;2024-02-23T01:26:16;99827.44;;;9.81;54.04
75940;BME280;75809;44.872;20.642;2024-02-23T01:28:41;99816.53;;;9.73;54.42
75940;BME280;75809;44.872;20.642;2024-02-23T01:31:11;99806.72;;;9.75;54.45
75940;BME280;75809;44.872;20.642;2024-02-23T01:33:37;99812.09;;;9.74;53.76
75940;BME280;75809;44.872;20.642;2024-02-23T01:36:05;99821.16;;;9.70;53.62
75940;BME280;75809;44.872;20.642;2024-02-23T01:38:30;99821.16;;;9.70;53.83
75940;BME280;75809;44.872;20.642;2024-02-23T01:40:58;99820.50;;;9.66;54.02
75940;BME280;75809;44.872;20.642;2024-02-23T01:43:24;99810.72;;;9.68;53.54
75940;BME280;75809;44.872;20.642;2024-02-23T01:45:49;99808.16;;;9.67;53.62
75940;BME280;75809;44.872;20.642;2024-02-23T01:48:15;99803.19;;;9.62;53.47
75940;BME280;75809;44.872;20.642;2024-02-23T01:50:42;99811.25;;;9.73;53.52
75940;BME280;75809;44.872;20.642;2024-02-23T01:53:09;99798.06;;;9.73;53.64
75940;BME280;75809;44.872;20.642;2024-02-23T01:55:36;99800.69;;;9.73;53.20
75940;BME280;75809;44.872;20.642;2024-02-23T01:58:04;99805.22;;;9.71;52.90
75940;BME280;75809;44.872;20.642;2024-02-23T02:00:30;99813.56;;;9.78;53.04
75940;BME280;75809;44.872;20.642;2024-02-23T02:02:57;99804.66;;;9.80;52.98
75940;BME280;75809;44.872;20.642;2024-02-23T02:05:22;99808.31;;;9.78;52.98
75940;BME280;75809;44.872;20.642;2024-02-23T02:07:49;99799.53;;;9.77;53.08
75940;BME280;75809;44.872;20.642;2024-02-23T02:10:20;99798.16;;;9.72;52.98
75940;BME280;75809;44.872;20.642;2024-02-23T02:12:46;99796.38;;;9.72;53.45
75940;BME280;75809;44.872;20.642;2024-02-23T02:15:11;99800.91;;;9.70;53.15
75940;BME280;75809;44.872;20.642;2024-02-23T02:17:37;99798.44;;;9.67;53.11
75940;BME280;75809;44.872;20.642;2024-02-23T02:20:03;99799.97;;;9.71;52.75
75940;BME280;75809;44.872;20.642;2024-02-23T02:22:32;99800.50;;;9.76;52.93
75940;BME280;75809;44.872;20.642;2024-02-23T02:24:58;99786.78;;;9.71;52.99
75940;BME280;75809;44.872;20.642;2024-02-23T02:27:24;99781.69;;;9.68;52.75
75940;BME280;75809;44.872;20.642;2024-02-23T02:29:50;99783.38;;;9.69;52.61
75940;BME280;75809;44.872;20.642;2024-02-23T02:32:16;99780.84;;;9.68;53.16
75940;BME280;75809;44.872;20.642;2024-02-23T02:34:42;99785.88;;;9.58;53.49
75940;BME280;75809;44.872;20.642;2024-02-23T02:37:07;99793.94;;;9.69;53.03
75940;BME280;75809;44.872;20.642;2024-02-23T02:39:33;99786.13;;;9.68;53.18
75940;BME280;75809;44.872;20.642;2024-02-23T02:41:59;99786.13;;;9.68;53.64
75940;BME280;75809;44.872;20.642;2024-02-23T02:44:24;99787.03;;;9.67;53.32
75940;BME280;75809;44.872;20.642;2024-02-23T02:46:51;99797.41;;;9.70;53.07
75940;BME280;75809;44.872;20.642;2024-02-23T02:49:17;99785.34;;;9.66;52.36
75940;BME280;75809;44.872;20.642;2024-02-23T02:51:43;99794.03;;;9.68;52.56
75940;BME280;75809;44.872;20.642;2024-02-23T02:54:10;99789.69;;;9.67;52.22
75940;BME280;75809;44.872;20.642;2024-02-23T02:56:35;99785.09;;;9.70;52.13
75940;BME280;75809;44.872;20.642;2024-02-23T02:59:01;99780.91;;;9.80;50.88
75940;BME280;75809;44.872;20.642;2024-02-23T03:01:26;99790.09;;;9.88;50.80
75940;BME280;75809;44.872;20.642;2024-02-23T03:03:52;99778.41;;;9.92;50.31
75940;BME280;75809;44.872;20.642;2024-02-23T03:06:17;99778.00;;;9.98;50.20
75940;BME280;75809;44.872;20.642;2024-02-23T03:08:43;99781.19;;;10.03;49.37
75940;BME280;75809;44.872;20.642;2024-02-23T03:11:08;99784.56;;;10.05;49.64
75940;BME280;75809;44.872;20.642;2024-02-23T03:13:34;99793.34;;;10.05;49.29
75940;BME280;75809;44.872;20.642;2024-02-23T03:15:59;99783.50;;;10.07;49.61
75940;BME280;75809;44.872;20.642;2024-02-23T03:18:25;99787.34;;;10.16;48.26
75940;BME280;75809;44.872;20.642;2024-02-23T03:20:52;99778.25;;;10.20;48.21
75940;BME280;75809;44.872;20.642;2024-02-23T03:23:20;99773.56;;;10.25;47.94
75940;BME280;75809;44.872;20.642;2024-02-23T03:25:46;99779.38;;;10.30;47.87
75940;BME280;75809;44.872;20.642;2024-02-23T03:28:11;99768.19;;;10.39;46.63
75940;BME280;75809;44.872;20.642;2024-02-23T03:30:36;99766.28;;;10.41;47.33
75940;BME280;75809;44.872;20.642;2024-02-23T03:33:02;99766.28;;;10.41;47.41
75940;BME280;75809;44.872;20.642;2024-02-23T03:35:27;99766.28;;;10.41;47.40
75940;BME280;75809;44.872;20.642;2024-02-23T03:37:53;99776.00;;;10.41;47.93
75940;BME280;75809;44.872;20.642;2024-02-23T03:40:18;99765.66;;;10.38;47.62
75940;BME280;75809;44.872;20.642;2024-02-23T03:42:44;99769.38;;;10.35;48.32
75940;BME280;75809;44.872;20.642;2024-02-23T03:45:10;99762.69;;;10.30;48.34
75940;BME280;75809;44.872;20.642;2024-02-23T03:47:35;99765.22;;;10.31;48.01
75940;BME280;75809;44.872;20.642;2024-02-23T03:50:01;99762.41;;;10.34;48.05
75940;BME280;75809;44.872;20.642;2024-02-23T03:52:26;99763.03;;;10.38;47.90
75940;BME280;75809;44.872;20.642;2024-02-23T03:54:52;99772.63;;;10.26;48.36
75940;BME280;75809;44.872;20.642;2024-02-23T03:57:19;99774.03;;;10.18;48.92
75940;BME280;75809;44.872;20.642;2024-02-23T03:59:55;99774.16;;;10.16;48.96
75940;BME280;75809;44.872;20.642;2024-02-23T04:02:20;99788.28;;;10.15;49.06
75940;BME280;75809;44.872;20.642;2024-02-23T04:04:47;99788.41;;;10.13;48.33
75940;BME280;75809;44.872;20.642;2024-02-23T04:07:13;99785.25;;;10.21;48.10
75940;BME280;75809;44.872;20.642;2024-02-23T04:09:38;99780.91;;;10.20;47.89
75940;BME280;75809;44.872;20.642;2024-02-23T04:12:04;99781.06;;;10.31;48.32
75940;BME280;75809;44.872;20.642;2024-02-23T04:14:30;99782.00;;;10.30;47.60
75940;BME280;75809;44.872;20.642;2024-02-23T04:16:56;99777.41;;;10.34;47.51
75940;BME280;75809;44.872;20.642;2024-02-23T04:19:21;99777.28;;;10.35;47.47
75940;BME280;75809;44.872;20.642;2024-02-23T04:21:47;99779.38;;;10.30;48.16
75940;BME280;75809;44.872;20.642;2024-02-23T04:24:12;99777.28;;;10.35;48.43
75940;BME280;75809;44.872;20.642;2024-02-23T04:26:38;99771.38;;;10.32;47.87
75940;BME280;75809;44.872;20.642;2024-02-23T04:29:03;99774.09;;;10.30;48.11
75940;BME280;75809;44.872;20.642;2024-02-23T04:31:29;99764.81;;;10.37;48.05
75940;BME280;75809;44.872;20.642;2024-02-23T04:33:54;99759.94;;;10.31;47.93
75940;BME280;75809;44.872;20.642;2024-02-23T04:36:20;99760.91;;;10.30;48.15
75940;BME280;75809;44.872;20.642;2024-02-23T04:38:48;99757.31;;;10.31;48.58
75940;BME280;75809;44.872;20.642;2024-02-23T04:41:13;99754.78;;;10.30;47.95
75940;BME280;75809;44.872;20.642;2024-02-23T04:43:39;99752.91;;;10.32;48.84
75940;BME280;75809;44.872;20.642;2024-02-23T04:46:04;99753.19;;;10.27;49.11
75940;BME280;75809;44.872;20.642;2024-02-23T04:48:30;99753.41;;;10.24;49.11
75940;BME280;75809;44.872;20.642;2024-02-23T04:50:57;99751.72;;;10.23;49.98
75940;BME280;75809;44.872;20.642;2024-02-23T04:53:23;99755.47;;;10.19;50.12
75940;BME280;75809;44.872;20.642;2024-02-23T04:55:48;99764.53;;;10.15;49.71
75940;BME280;75809;44.872;20.642;2024-02-23T04:58:14;99766.84;;;10.07;50.80
75940;BME280;75809;44.872;20.642;2024-02-23T05:00:39;99759.03;;;10.05;50.45
75940;BME280;75809;44.872;20.642;2024-02-23T05:03:05;99761.97;;;10.01;50.55
75940;BME280;75809;44.872;20.642;2024-02-23T05:05:31;99770.63;;;10.03;50.97
75940;BME280;75809;44.872;20.642;2024-02-23T05:07:57;99767.25;;;10.01;50.90
75940;BME280;75809;44.872;20.642;2024-02-23T05:10:23;99769.38;;;10.08;50.25
75940;BME280;75809;44.872;20.642;2024-02-23T05:12:49;99758.94;;;10.07;51.41
75940;BME280;75809;44.872;20.642;2024-02-23T05:15:15;99768.63;;;10.06;51.23
75940;BME280;75809;44.872;20.642;2024-02-23T05:17:40;99767.91;;;10.04;50.76
75940;BME280;75809;44.872;20.642;2024-02-23T05:20:07;99768.63;;;10.06;50.53
75940;BME280;75809;44.872;20.642;2024-02-23T05:22:33;99765.56;;;10.00;50.77
75940;BME280;75809;44.872;20.642;2024-02-23T05:24:59;99767.06;;;10.04;50.94
75940;BME280;75809;44.872;20.642;2024-02-23T05:27:25;99766.84;;;10.07;50.62
75940;BME280;75809;44.872;20.642;2024-02-23T05:29:52;99766.22;;;10.03;50.41
75940;BME280;75809;44.872;20.642;2024-02-23T05:32:18;99773.06;;;10.06;50.59
75940;BME280;75809;44.872;20.642;2024-02-23T05:34:44;99781.81;;;10.06;50.30
75940;BME280;75809;44.872;20.642;2024-02-23T05:37:10;99780.97;;;10.06;51.03
75940;BME280;75809;44.872;20.642;2024-02-23T05:39:35;99788.53;;;9.98;50.82
75940;BME280;75809;44.872;20.642;2024-02-23T05:42:03;99784.22;;;9.97;50.69
75940;BME280;75809;44.872;20.642;2024-02-23T05:44:29;99791.75;;;10.03;50.85
75940;BME280;75809;44.872;20.642;2024-02-23T05:46:54;99791.53;;;10.06;50.43
75940;BME280;75809;44.872;20.642;2024-02-23T05:49:20;99795.75;;;10.08;51.11
75940;BME280;75809;44.872;20.642;2024-02-23T05:51:45;99784.78;;;10.02;50.81
75940;BME280;75809;44.872;20.642;2024-02-23T05:54:11;99791.44;;;10.07;50.41
75940;BME280;75809;44.872;20.642;2024-02-23T05:56:36;99788.78;;;10.07;50.59
75940;BME280;75809;44.872;20.642;2024-02-23T05:59:02;99794.91;;;10.08;50.15
75940;BME280;75809;44.872;20.642;2024-02-23T06:01:28;99794.91;;;10.08;50.43
75940;BME280;75809;44.872;20.642;2024-02-23T06:03:53;99794.75;;;10.11;50.71
75940;BME280;75809;44.872;20.642;2024-02-23T06:06:20;99797.38;;;10.11;50.72
75940;BME280;75809;44.872;20.642;2024-02-23T06:08:46;99794.75;;;10.11;50.12
75940;BME280;75809;44.872;20.642;2024-02-23T06:11:11;99802.09;;;10.06;50.32
75940;BME280;75809;44.872;20.642;2024-02-23T06:13:37;99796.72;;;10.07;50.14
75940;BME280;75809;44.872;20.642;2024-02-23T06:16:04;99794.75;;;10.11;50.32
75940;BME280;75809;44.872;20.642;2024-02-23T06:18:29;99793.97;;;10.09;50.25
75940;BME280;75809;44.872;20.642;2024-02-23T06:20:55;99786.81;;;10.11;50.33
75940;BME280;75809;44.872;20.642;2024-02-23T06:23:20;99795.13;;;10.05;51.06
75940;BME280;75809;44.872;20.642;2024-02-23T06:25:47;99792.59;;;10.03;51.17
75940;BME280;75809;44.872;20.642;2024-02-23T06:28:13;99800.63;;;10.02;50.84
75940;BME280;75809;44.872;20.642;2024-02-23T06:30:38;99795.13;;;10.05;50.78
75940;BME280;75809;44.872;20.642;2024-02-23T06:33:04;99787.09;;;10.06;50.92
75940;BME280;75809;44.872;20.642;2024-02-23T06:35:29;99787.94;;;10.07;50.49
75940;BME280;75809;44.872;20.642;2024-02-23T06:37:56;99801.88;;;10.09;50.79
75940;BME280;75809;44.872;20.642;2024-02-23T06:40:21;99809.38;;;10.02;51.43
75940;BME280;75809;44.872;20.642;2024-02-23T06:42:47;99800.41;;;10.05;51.14
75940;BME280;75809;44.872;20.642;2024-02-23T06:45:12;99808.00;;;10.09;50.75
75940;BME280;75809;44.872;20.642;2024-02-23T06:47:38;99796.44;;;10.12;51.48
75940;BME280;75809;44.872;20.642;2024-02-23T06:50:05;99797.28;;;10.12;51.62
75940;BME280;75809;44.872;20.642;2024-02-23T06:52:31;99809.19;;;10.18;51.35
75940;BME280;75809;44.872;20.642;2024-02-23T06:54:58;99808.25;;;10.19;50.36
75940;BME280;75809;44.872;20.642;2024-02-23T06:57:23;99802.41;;;10.28;50.99
75940;BME280;75809;44.872;20.642;2024-02-23T06:59:51;99792.69;;;10.29;51.18
75940;BME280;75809;44.872;20.642;2024-02-23T07:02:16;99791.84;;;10.28;50.79
75940;BME280;75809;44.872;20.642;2024-02-23T07:04:42;99808.22;;;10.33;51.94
75940;BME280;75809;44.872;20.642;2024-02-23T07:07:07;99818.91;;;10.45;50.73
75940;BME280;75809;44.872;20.642;2024-02-23T07:09:34;99821.34;;;10.48;50.65
75940;BME280;75809;44.872;20.642;2024-02-23T07:12:00;99829.50;;;10.57;50.20
75940;BME280;75809;44.872;20.642;2024-02-23T07:14:25;99826.34;;;10.65;49.36
75940;BME280;75809;44.872;20.642;2024-02-23T07:16:51;99826.13;;;10.68;49.76
75940;BME280;75809;44.872;20.642;2024-02-23T07:19:17;99835.13;;;10.78;48.82
75940;BME280;75809;44.872;20.642;2024-02-23T07:21:43;99832.25;;;10.81;49.68
75940;BME280;75809;44.872;20.642;2024-02-23T07:24:09;99830.19;;;10.86;48.72
75940;BME280;75809;44.872;20.642;2024-02-23T07:26:34;99834.63;;;10.86;49.05
75940;BME280;75809;44.872;20.642;2024-02-23T07:29:00;99838.09;;;10.86;49.03
75940;BME280;75809;44.872;20.642;2024-02-23T07:31:25;99827.41;;;10.88;49.26
75940;BME280;75809;44.872;20.642;2024-02-23T07:33:50;99835.34;;;11.00;49.09
75940;BME280;75809;44.872;20.642;2024-02-23T07:36:17;99840.41;;;11.04;48.79
75940;BME280;75809;44.872;20.642;2024-02-23T07:38:43;99841.91;;;11.08;48.86
75940;BME280;75809;44.872;20.642;2024-02-23T07:41:10;99846.25;;;11.09;48.51
75940;BME280;75809;44.872;20.642;2024-02-23T07:43:35;99841.16;;;11.18;48.73
75940;BME280;75809;44.872;20.642;2024-02-23T07:46:01;99834.59;;;11.24;49.34
75940;BME280;75809;44.872;20.642;2024-02-23T07:48:27;99837.00;;;11.27;48.70
75940;BME280;75809;44.872;20.642;2024-02-23T07:50:53;99839.25;;;11.33;48.37
75940;BME280;75809;44.872;20.642;2024-02-23T07:53:18;99841.53;;;11.38;48.30
75940;BME280;75809;44.872;20.642;2024-02-23T07:55:44;99840.41;;;11.42;48.97
75940;BME280;75809;44.872;20.642;2024-02-23T07:58:09;99841.34;;;11.41;48.93
75940;BME280;75809;44.872;20.642;2024-02-23T08:00:35;99846.41;;;11.44;48.39
75940;BME280;75809;44.872;20.642;2024-02-23T08:03:03;99836.88;;;11.54;48.78
75940;BME280;75809;44.872;20.642;2024-02-23T08:05:29;99848.91;;;11.58;48.84
75940;BME280;75809;44.872;20.642;2024-02-23T08:07:54;99844.78;;;11.67;48.16
75940;BME280;75809;44.872;20.642;2024-02-23T08:10:21;99840.50;;;11.77;48.57
75940;BME280;75809;44.872;20.642;2024-02-23T08:12:47;99831.44;;;11.81;47.59
75940;BME280;75809;44.872;20.642;2024-02-23T08:15:12;99826.44;;;11.89;48.18
75940;BME280;75809;44.872;20.642;2024-02-23T08:17:38;99829.59;;;11.94;48.33
75940;BME280;75809;44.872;20.642;2024-02-23T08:20:04;99812.41;;;12.00;48.02
75940;BME280;75809;44.872;20.642;2024-02-23T08:22:30;99810.78;;;12.10;47.44
75940;BME280;75809;44.872;20.642;2024-02-23T08:24:55;99810.44;;;12.14;47.97
75940;BME280;75809;44.872;20.642;2024-02-23T08:27:20;99804.69;;;12.21;47.54
75940;BME280;75809;44.872;20.642;2024-02-23T08:29:46;99805.19;;;12.26;46.96
75940;BME280;75809;44.872;20.642;2024-02-23T08:32:11;99809.28;;;12.30;46.83
75940;BME280;75809;44.872;20.642;2024-02-23T08:34:38;99802.06;;;12.32;46.73
75940;BME280;75809;44.872;20.642;2024-02-23T08:37:04;99810.53;;;12.37;47.20
75940;BME280;75809;44.872;20.642;2024-02-23T08:39:29;99807.41;;;12.43;46.84
75940;BME280;75809;44.872;20.642;2024-02-23T08:41:55;99809.38;;;12.52;46.02
75940;BME280;75809;44.872;20.642;2024-02-23T08:44:21;99805.06;;;12.62;45.81
75940;BME280;75809;44.872;20.642;2024-02-23T08:46:47;99804.09;;;12.63;45.54
75940;BME280;75809;44.872;20.642;2024-02-23T08:49:13;99802.91;;;12.67;46.27
75940;BME280;75809;44.872;20.642;2024-02-23T08:51:39;99809.66;;;12.71;46.02
75940;BME280;75809;44.872;20.642;2024-02-23T08:54:05;99799.44;;;12.78;46.21
75940;BME280;75809;44.872;20.642;2024-02-23T08:56:31;99802.22;;;12.77;46.66
75940;BME280;75809;44.872;20.642;2024-02-23T08:59:01;99801.00;;;12.81;47.10
75940;BME280;75809;44.872;20.642;2024-02-23T09:01:27;99790.88;;;12.86;46.96
75940;BME280;75809;44.872;20.642;2024-02-23T09:03:54;99790.28;;;12.82;46.99
75940;BME280;75809;44.872;20.642;2024-02-23T09:06:20;99794.75;;;12.82;47.25
75940;BME280;75809;44.872;20.642;2024-02-23T09:08:45;99797.41;;;12.82;47.44
75940;BME280;75809;44.872;20.642;2024-02-23T09:11:11;99794.75;;;12.82;47.56
75940;BME280;75809;44.872;20.642;2024-02-23T09:13:38;99801.88;;;12.92;47.52
75940;BME280;75809;44.872;20.642;2024-02-23T09:16:04;99795.28;;;13.09;47.61
75940;BME280;75809;44.872;20.642;2024-02-23T09:18:30;99796.28;;;13.19;47.28
75940;BME280;75809;44.872;20.642;2024-02-23T09:20:55;99800.78;;;13.17;47.13
75940;BME280;75809;44.872;20.642;2024-02-23T09:23:20;99795.50;;;13.28;47.51
75940;BME280;75809;44.872;20.642;2024-02-23T09:25:46;99784.69;;;13.31;47.19
75940;BME280;75809;44.872;20.642;2024-02-23T09:28:12;99791.66;;;13.44;47.28
75940;BME280;75809;44.872;20.642;2024-02-23T09:30:37;99788.28;;;13.53;47.65
75940;BME280;75809;44.872;20.642;2024-02-23T09:33:03;99787.75;;;13.59;47.21
75940;BME280;75809;44.872;20.642;2024-02-23T09:35:29;99790.91;;;13.64;47.34
75940;BME280;75809;44.872;20.642;2024-02-23T09:37:54;99793.31;;;13.67;47.13
75940;BME280;75809;44.872;20.642;2024-02-23T09:40:20;99794.50;;;13.74;47.22
75940;BME280;75809;44.872;20.642;2024-02-23T09:42:56;99791.38;;;13.69;46.86
75940;BME280;75809;44.872;20.642;2024-02-23T09:45:25;99792.47;;;13.67;46.88
75940;BME280;75809;44.872;20.642;2024-02-23T09:47:56;99794.16;;;13.68;46.89
75940;BME280;75809;44.872;20.642;2024-02-23T09:50:25;99793.41;;;13.77;46.68
75940;BME280;75809;44.872;20.642;2024-02-23T09:52:51;99799.06;;;13.83;46.70
75940;BME280;75809;44.872;20.642;2024-02-23T09:55:17;99782.06;;;13.86;46.84
75940;BME280;75809;44.872;20.642;2024-02-23T09:57:45;99776.34;;;13.90;46.33
75940;BME280;75809;44.872;20.642;2024-02-23T10:00:13;99769.22;;;13.91;46.28
75940;BME280;75809;44.872;20.642;2024-02-23T10:02:40;99764.84;;;14.01;46.41
75940;BME280;75809;44.872;20.642;2024-02-23T10:05:08;99769.09;;;14.04;45.85
75940;BME280;75809;44.872;20.642;2024-02-23T10:07:35;99763.38;;;14.08;45.71
75940;BME280;75809;44.872;20.642;2024-02-23T10:10:00;99767.09;;;14.17;46.04
75940;BME280;75809;44.872;20.642;2024-02-23T10:12:26;99770.31;;;14.21;45.72
75940;BME280;75809;44.872;20.642;2024-02-23T10:14:52;99762.22;;;14.22;46.03
75940;BME280;75809;44.872;20.642;2024-02-23T10:17:20;99764.38;;;14.28;46.05
75940;BME280;75809;44.872;20.642;2024-02-23T10:19:45;99764.13;;;14.31;45.79
75940;BME280;75809;44.872;20.642;2024-02-23T10:22:11;99761.94;;;14.36;46.06
75940;BME280;75809;44.872;20.642;2024-02-23T10:24:37;99771.81;;;14.34;45.65
75940;BME280;75809;44.872;20.642;2024-02-23T10:27:02;99767.69;;;14.41;45.92
75940;BME280;75809;44.872;20.642;2024-02-23T10:29:28;99761.16;;;14.45;45.37
75940;BME280;75809;44.872;20.642;2024-02-23T10:31:57;99768.38;;;14.43;45.00
75940;BME280;75809;44.872;20.642;2024-02-23T10:34:24;99761.53;;;14.41;45.00
75940;BME280;75809;44.872;20.642;2024-02-23T10:36:49;99758.50;;;14.45;45.19
75940;BME280;75809;44.872;20.642;2024-02-23T10:39:17;99748.06;;;14.54;45.15
75940;BME280;75809;44.872;20.642;2024-02-23T10:41:47;99742.53;;;14.66;45.38
75940;BME280;75809;44.872;20.642;2024-02-23T10:44:17;99743.28;;;14.68;44.86
75940;BME280;75809;44.872;20.642;2024-02-23T10:46:44;99716.84;;;14.76;44.54
75940;BME280;75809;44.872;20.642;2024-02-23T10:49:11;99732.94;;;14.75;44.66
75940;BME280;75809;44.872;20.642;2024-02-23T10:51:39;99738.88;;;14.79;44.02
75940;BME280;75809;44.872;20.642;2024-02-23T10:54:06;99727.38;;;14.78;44.18
75940;BME280;75809;44.872;20.642;2024-02-23T10:56:31;99726.31;;;14.90;44.74
75940;BME280;75809;44.872;20.642;2024-02-23T10:58:57;99719.31;;;14.89;44.02
75940;BME280;75809;44.872;20.642;2024-02-23T11:01:23;99735.97;;;14.91;43.99
75940;BME280;75809;44.872;20.642;2024-02-23T11:03:51;99716.56;;;15.00;44.16
75940;BME280;75809;44.872;20.642;2024-02-23T11:06:19;99737.28;;;15.07;44.20
75940;BME280;75809;44.872;20.642;2024-02-23T11:08:47;99727.81;;;15.14;44.02
75940;BME280;75809;44.872;20.642;2024-02-23T11:11:18;99728.69;;;15.24;43.36
75940;BME280;75809;44.872;20.642;2024-02-23T11:13:45;99715.78;;;15.29;43.13
75940;BME280;75809;44.872;20.642;2024-02-23T11:16:21;99721.16;;;15.39;42.78
75940;BME280;75809;44.872;20.642;2024-02-23T11:18:47;99721.19;;;15.58;42.68
75940;BME280;75809;44.872;20.642;2024-02-23T11:21:12;99708.06;;;15.76;42.22
75940;BME280;75809;44.872;20.642;2024-02-23T11:23:48;99700.78;;;15.87;41.75
75940;BME280;75809;44.872;20.642;2024-02-23T11:26:15;99699.38;;;16.12;41.63
75940;BME280;75809;44.872;20.642;2024-02-23T11:28:47;99703.84;;;16.22;41.43
75940;BME280;75809;44.872;20.642;2024-02-23T11:31:14;99701.03;;;16.33;41.24
75940;BME280;75809;44.872;20.642;2024-02-23T11:33:39;99692.88;;;16.44;40.85
75940;BME280;75809;44.872;20.642;2024-02-23T11:36:08;99698.78;;;16.38;40.68
75940;BME280;75809;44.872;20.642;2024-02-23T11:38:34;99694.41;;;16.37;40.62
75940;BME280;75809;44.872;20.642;2024-02-23T11:41:00;99688.97;;;16.38;40.81
75940;BME280;75809;44.872;20.642;2024-02-23T11:43:27;99701.84;;;16.43;41.01
75940;BME280;75809;44.872;20.642;2024-02-23T11:45:53;99688.91;;;16.48;40.96
75940;BME280;75809;44.872;20.642;2024-02-23T11:48:18;99693.16;;;16.41;40.78
75940;BME280;75809;44.872;20.642;2024-02-23T11:50:44;99690.75;;;16.47;40.67
75940;BME280;75809;44.872;20.642;2024-02-23T11:53:10;99688.78;;;16.49;40.76
75940;BME280;75809;44.872;20.642;2024-02-23T11:55:36;99684.69;;;16.55;40.77
75940;BME280;75809;44.872;20.642;2024-02-23T11:58:02;99675.97;;;16.63;40.37
75940;BME280;75809;44.872;20.642;2024-02-23T12:00:27;99668.97;;;16.71;39.96
75940;BME280;75809;44.872;20.642;2024-02-23T12:02:55;99663.44;;;16.83;39.75
75940;BME280;75809;44.872;20.642;2024-02-23T12:05:20;99666.06;;;16.92;39.33
75940;BME280;75809;44.872;20.642;2024-02-23T12:07:47;99659.13;;;16.99;39.33
75940;BME280;75809;44.872;20.642;2024-02-23T12:10:12;99637.94;;;16.98;38.28
75940;BME280;75809;44.872;20.642;2024-02-23T12:12:39;99636.78;;;17.00;38.23
75940;BME280;75809;44.872;20.642;2024-02-23T12:15:06;99636.91;;;17.09;38.04
75940;BME280;75809;44.872;20.642;2024-02-23T12:17:31;99646.53;;;17.19;37.54
75940;BME280;75809;44.872;20.642;2024-02-23T12:20:00;99639.31;;;17.65;36.69
75940;BME280;75809;44.872;20.642;2024-02-23T12:22:26;99629.78;;;18.76;34.86
75940;BME280;75809;44.872;20.642;2024-02-23T12:24:52;99648.00;;;18.81;34.49
75940;BME280;75809;44.872;20.642;2024-02-23T12:27:18;99622.91;;;18.73;34.94
75940;BME280;75809;44.872;20.642;2024-02-23T12:29:53;99643.34;;;18.57;34.64
75940;BME280;75809;44.872;20.642;2024-02-23T12:32:20;99633.56;;;18.39;34.87
75940;BME280;75809;44.872;20.642;2024-02-23T12:34:46;99645.41;;;18.37;34.86
75940;BME280;75809;44.872;20.642;2024-02-23T12:37:15;99637.28;;;18.46;34.54
75940;BME280;75809;44.872;20.642;2024-02-23T12:39:41;99619.56;;;18.45;34.07
75940;BME280;75809;44.872;20.642;2024-02-23T12:42:07;99640.63;;;18.48;34.38
75940;BME280;75809;44.872;20.642;2024-02-23T12:44:33;99642.44;;;18.66;34.17
75940;BME280;75809;44.872;20.642;2024-02-23T12:46:58;99652.50;;;19.06;33.22